Date,TemperatureHighF,TemperatureAvgF,TemperatureLowF,DewpointHighF,DewpointAvgF,DewpointLowF,HumidityHigh,HumidityAvg,HumidityLow,PressureMaxIn,PressureMinIn,WindSpeedMaxMPH,WindSpeedAvgMPH,GustSpeedMaxMPH,PrecipitationSumIn
2013-1-1,42.4,39.6,32.9,32.7,30.1,20.5,74,68,59,30.01,29.85,15,4,18,0.00
2013-1-2,36.1,30.4,26.4,20.8,17.5,14.5,71,59,46,30.20,29.97,13,3,13,0.00
2013-1-3,36.0,30.0,25.3,23.5,19.6,16.0,75,65,45,30.21,30.10,14,4,15,0.00
2013-1-4,38.5,34.3,29.8,26.1,24.5,22.5,79,68,55,30.15,30.01,19,7,21,0.00
2013-1-5,42.4,34.5,28.9,28.4,24.6,21.9,78,67,49,30.34,30.04,19,4,20,0.00
2013-1-6,48.4,39.1,33.4,36.1,31.7,28.6,92,76,49,30.25,30.00,11,2,12,0.02
2013-1-7,49.3,40.6,34.2,33.4,30.2,28.2,82,67,49,30.42,30.07,11,3,12,0.00
2013-1-8,48.7,40.5,33.4,39.6,35.6,28.9,90,83,59,30.45,30.36,14,3,15,0.00
2013-1-9,49.8,44.6,37.2,44.1,40.3,35.4,94,85,68,30.40,30.18,16,2,16,0.00
2013-1-10,51.3,43.7,38.5,37.4,31.4,29.1,78,63,44,30.53,30.29,10,2,12,0.00
2013-1-11,50.0,44.6,39.6,48.9,41.2,33.3,97,88,76,30.51,30.06,14,2,14,0.38
2013-1-12,50.4,46.5,43.9,48.7,45.4,43.2,97,96,91,30.18,30.04,9,2,12,0.00
2013-1-13,49.8,44.7,41.0,49.3,44.0,40.3,98,97,97,30.17,30.02,10,2,10,0.02
2013-1-14,56.1,49.7,43.2,55.6,48.0,39.0,99,94,78,30.26,29.98,11,2,13,0.05
2013-1-15,43.0,39.7,38.7,39.7,35.6,32.2,94,85,74,30.33,30.16,15,5,17,0.36
2013-1-16,43.5,40.2,38.1,42.4,38.8,35.6,96,95,91,30.17,29.80,18,6,21,0.40
2013-1-17,42.3,40.6,36.9,39.0,35.4,32.5,94,82,69,30.10,29.96,11,2,11,0.01
2013-1-18,37.2,33.4,28.4,34.0,20.1,9.9,88,60,36,30.52,29.99,17,3,20,0.01
2013-1-19,47.8,40.9,32.2,38.8,31.1,17.4,82,68,52,30.46,29.99,20,7,22,0.00
2013-1-20,55.2,45.7,34.7,36.5,30.0,15.1,78,56,34,30.07,29.75,26,7,26,0.00
2013-1-21,36.9,32.4,27.7,27.3,19.0,13.1,91,59,43,30.12,29.79,12,2,16,0.00
2013-1-22,27.7,21.1,15.6,24.3,6.7,-0.2,87,54,40,30.25,29.86,21,7,24,0.00
2013-1-23,21.9,16.8,11.7,6.6,3.1,-0.9,67,54,41,30.30,30.17,18,4,22,0.00
2013-1-24,26.1,19.9,15.8,7.5,4.1,-2.0,67,51,30,30.43,30.11,18,4,21,0.00
2013-1-25,24.3,18.7,14.4,17.4,8.5,2.1,89,65,46,30.45,30.05,12,3,13,0.00
2013-1-26,28.9,21.2,14.5,16.9,13.1,10.0,90,72,48,30.38,30.05,15,4,19,0.01
2013-1-27,35.8,26.3,16.0,20.7,14.5,9.5,77,62,41,30.54,30.38,12,3,13,0.00
2013-1-28,37.0,31.8,24.4,35.8,28.5,18.0,95,88,73,30.51,30.02,14,3,15,0.12
2013-1-29,49.3,40.5,34.9,46.2,38.9,33.6,96,94,86,30.15,30.01,10,2,11,0.00
2013-1-30,51.8,45.7,40.5,51.3,45.0,39.6,98,97,95,30.07,29.43,21,6,23,0.01
2013-1-31,55.0,44.6,31.1,54.3,32.4,13.6,98,65,38,29.88,29.16,33,11,35,0.32
2013-2-1,32.0,29.0,22.8,25.9,15.5,9.0,90,58,41,30.28,29.85,24,7,32,0.00
2013-2-2,30.4,24.8,18.1,24.4,13.9,8.2,92,64,46,30.34,30.05,19,6,19,0.00
2013-2-3,34.5,29.1,25.5,28.4,24.6,20.5,93,83,58,30.05,29.79,10,2,10,0.03
2013-2-4,31.5,28.1,22.6,25.7,17.0,12.2,91,63,48,30.04,29.83,20,6,22,0.01
2013-2-5,37.6,34.4,30.6,34.3,31.5,23.5,94,89,72,29.97,29.86,12,2,13,0.00
2013-2-6,41.7,34.7,28.9,32.9,26.9,22.1,95,75,51,30.36,29.90,19,4,19,0.00
2013-2-7,39.9,33.2,26.6,35.8,24.5,16.5,85,70,58,30.48,30.25,14,4,15,0.00
2013-2-8,42.3,39.3,31.8,41.2,37.8,30.6,97,94,86,30.25,29.55,28,9,28,1.52
2013-2-9,34.2,29.4,23.7,30.6,22.7,12.6,96,77,58,30.33,29.72,24,7,30,0.10
2013-2-10,37.8,28.4,18.3,32.5,18.8,10.8,81,67,42,30.49,30.32,13,3,15,0.01
2013-2-11,49.5,43.5,37.8,48.9,42.2,32.5,98,95,81,30.34,29.66,19,6,19,0.33
2013-2-12,49.3,42.1,34.7,46.4,31.9,27.3,98,69,46,29.99,29.73,24,4,24,0.00
2013-2-13,42.1,36.5,30.0,35.6,31.3,25.5,95,81,71,29.97,29.63,17,4,21,0.24
2013-2-14,43.9,37.1,32.4,38.3,34.7,31.1,96,91,73,30.04,29.68,11,3,13,0.08
2013-2-15,46.9,41.3,37.0,41.4,38.4,34.3,95,89,79,30.05,29.93,15,4,15,0.00
2013-2-16,41.2,36.8,30.2,37.8,32.9,26.2,92,86,74,29.95,29.71,16,4,17,0.01
2013-2-17,33.6,29.5,22.8,27.5,12.7,5.0,88,50,37,30.03,29.66,26,8,31,0.00
2013-2-18,38.7,28.4,20.5,23.0,11.5,4.8,66,49,33,30.28,30.03,27,7,28,0.00
2013-2-19,46.2,41.1,33.6,44.1,37.1,20.8,96,86,58,30.23,29.70,18,6,19,0.20
2013-2-20,39.7,32.1,26.1,35.2,19.6,13.3,84,60,45,30.04,29.76,27,8,29,0.00
2013-2-21,36.9,29.9,23.2,19.2,16.4,13.1,72,57,45,30.27,30.00,25,6,26,0.00
2013-2-22,39.4,33.1,24.8,36.9,27.2,16.5,91,79,65,30.38,30.24,13,3,13,0.00
2013-2-23,45.9,41.0,38.5,45.1,40.0,36.7,97,96,91,30.25,29.74,20,6,21,0.30
2013-2-24,49.8,40.6,33.3,42.4,33.6,23.9,97,78,55,29.99,29.73,21,5,24,0.02
2013-2-25,43.2,36.9,29.3,33.4,28.8,23.0,83,73,54,30.24,29.99,12,3,13,0.00
2013-2-26,43.7,39.2,31.6,42.6,35.6,28.8,96,87,77,30.26,29.75,26,8,30,0.52
2013-2-27,54.7,47.7,43.3,51.1,43.9,38.8,98,87,63,29.77,29.49,23,6,25,0.41
2013-2-28,45.9,43.2,37.9,40.6,37.3,31.8,90,80,63,29.65,29.57,14,3,14,0.01
2013-3-1,47.7,40.5,34.0,35.1,30.8,28.2,89,70,51,29.79,29.63,14,4,14,0.00
2013-3-2,43.3,37.6,33.6,29.5,26.0,23.7,73,63,48,29.80,29.70,14,4,14,0.00
2013-3-3,40.5,33.8,28.6,24.4,21.7,19.9,73,62,47,29.78,29.68,19,5,21,0.00
2013-3-4,43.0,35.1,28.8,24.1,21.7,18.7,69,58,46,29.93,29.78,23,6,24,0.00
2013-3-5,44.1,37.5,29.7,35.1,28.0,23.4,81,69,50,30.02,29.93,16,3,16,0.00
2013-3-6,42.1,39.9,36.3,38.3,36.4,34.0,93,87,80,29.94,29.64,45,18,45,0.65
2013-3-7,41.9,37.6,34.3,35.6,33.7,32.2,94,86,74,30.06,29.80,35,6,36,0.20
2013-3-8,42.3,35.5,31.8,35.2,32.4,29.8,93,89,72,30.15,29.98,17,4,20,0.04
2013-3-9,52.5,42.1,34.7,37.6,31.4,22.1,90,67,31,30.31,30.14,14,4,15,0.00
2013-3-10,41.0,39.0,35.2,38.3,35.8,32.9,94,88,82,30.38,30.30,11,3,14,0.00
2013-3-11,49.1,43.9,38.1,45.7,42.0,36.5,96,93,85,30.32,30.09,12,2,13,0.01
2013-3-12,51.1,47.8,45.0,50.5,46.2,40.3,98,94,83,30.09,29.70,23,8,24,0.53
2013-3-13,50.9,44.1,37.8,40.5,32.6,26.4,85,66,41,29.93,29.82,18,5,19,0.00
2013-3-14,42.4,36.7,30.9,28.9,19.9,15.8,75,51,35,29.99,29.89,24,8,30,0.00
2013-3-15,49.3,38.8,29.7,37.2,24.3,15.3,81,56,41,30.03,29.76,23,7,26,0.00
2013-3-16,43.3,39.3,35.4,36.0,32.7,25.9,94,78,57,29.91,29.73,18,5,18,0.06
2013-3-17,41.7,36.2,31.5,34.0,26.5,21.2,93,70,44,30.29,29.91,14,2,15,0.00
2013-3-18,43.5,38.4,33.8,42.3,31.5,22.1,96,77,58,30.36,29.88,23,9,25,0.59
2013-3-19,51.4,43.8,40.6,43.7,39.3,23.4,97,85,48,29.90,29.69,19,4,20,0.31
2013-3-20,48.0,40.7,32.5,36.0,24.9,19.0,80,55,33,29.94,29.81,22,7,24,0.00
2013-3-21,42.8,34.3,29.7,34.7,26.5,16.2,91,74,52,29.81,29.66,17,4,19,0.02
2013-3-22,41.4,34.6,27.7,25.0,21.1,15.8,71,58,45,29.93,29.78,21,7,25,0.01
2013-3-23,50.2,39.0,29.1,25.0,23.2,21.2,75,55,34,29.95,29.83,19,6,22,0.00
2013-3-24,44.4,37.6,30.7,30.9,25.6,20.1,73,62,38,29.97,29.68,13,4,15,0.00
2013-3-25,40.5,37.0,33.4,35.6,33.7,30.2,95,88,70,29.69,29.39,27,9,29,0.84
2013-3-26,50.7,42.2,34.2,39.0,33.9,29.8,95,75,45,29.88,29.60,13,4,15,0.00
2013-3-27,52.2,43.7,34.3,35.2,31.1,25.5,86,63,37,30.00,29.88,20,5,20,0.00
2013-3-28,49.5,42.6,33.4,34.3,31.0,28.8,84,65,48,30.12,29.99,12,3,15,0.00
2013-3-29,54.0,45.3,37.2,39.2,32.1,28.0,75,61,38,30.17,30.06,13,3,15,0.00
2013-3-30,55.8,45.4,38.1,40.5,36.0,28.9,86,71,37,30.19,30.09,16,3,16,0.00
2013-3-31,50.4,45.7,41.5,49.3,41.7,35.2,96,86,68,30.16,29.70,18,5,20,0.27
2013-4-1,54.9,48.6,41.9,49.5,42.8,23.0,97,82,46,29.90,29.65,20,6,22,0.03
2013-4-2,46.6,40.2,33.4,23.7,19.6,15.1,60,44,30,30.12,29.90,23,6,27,0.00
2013-4-3,49.5,40.4,32.5,21.7,18.5,14.0,62,42,26,30.31,30.12,22,6,35,0.00
2013-4-4,44.1,38.6,32.0,35.4,24.4,16.0,78,57,37,30.41,30.12,18,4,20,0.00
2013-4-5,51.8,44.2,38.7,46.6,39.0,28.8,95,83,44,30.12,29.74,14,3,14,0.40
2013-4-6,46.8,41.3,36.3,33.3,27.2,20.3,73,58,43,30.33,29.97,12,4,14,0.00
2013-4-7,50.4,45.8,40.5,45.9,40.4,33.1,91,81,73,30.33,30.05,15,5,17,0.00
2013-4-8,55.9,50.5,47.7,49.5,46.6,44.8,93,86,75,30.09,29.99,15,4,15,0.00
2013-4-9,84.9,61.1,47.5,56.8,50.3,44.6,96,72,29,30.01,29.93,15,4,17,0.00
2013-4-10,69.1,56.0,49.6,58.5,50.7,45.1,93,83,63,29.96,29.79,19,5,23,0.07
2013-4-11,67.6,52.4,46.2,61.7,50.0,44.8,96,92,78,29.97,29.81,20,6,23,0.03
2013-4-12,55.8,47.2,43.5,55.2,46.4,42.8,98,97,96,29.94,29.65,21,7,24,0.49
2013-4-13,59.4,48.4,43.3,47.3,44.3,37.9,98,87,49,29.98,29.69,16,4,19,0.01
2013-4-14,63.0,54.4,46.9,48.2,40.5,28.6,93,64,28,30.19,29.97,22,4,23,0.00
2013-4-15,49.6,48.0,46.6,44.8,42.0,38.5,89,80,73,30.37,30.18,16,6,16,0.00
2013-4-16,56.7,52.2,47.8,54.0,49.1,44.8,93,89,84,30.36,30.15,16,5,17,0.00
2013-4-17,62.4,54.8,50.0,60.3,50.5,45.0,94,85,76,30.28,30.11,14,4,16,0.01
2013-4-18,54.5,51.9,49.5,52.2,48.8,44.6,97,89,82,30.32,30.10,11,4,13,0.00
2013-4-19,63.0,55.3,51.4,62.4,54.3,50.5,98,97,92,30.10,29.72,24,6,28,0.09
2013-4-20,58.5,53.2,47.8,57.9,40.7,30.2,98,66,39,30.29,29.70,18,6,21,0.28
2013-4-21,48.6,44.1,38.7,34.2,29.4,23.4,67,56,46,30.61,30.29,17,6,18,0.00
2013-4-22,48.6,45.6,43.9,42.4,38.6,32.7,88,76,63,30.61,30.43,27,11,27,0.00
2013-4-23,49.3,45.6,43.0,44.8,42.3,39.7,94,88,82,30.43,30.10,24,8,27,0.02
2013-4-24,52.3,48.1,41.9,49.6,45.4,39.4,96,91,82,30.11,29.88,21,5,23,0.00
2013-4-25,61.2,51.9,45.3,53.8,42.4,32.5,95,72,35,30.28,29.90,17,4,22,0.01
2013-4-26,58.3,52.1,46.8,48.9,43.9,36.7,88,74,46,30.40,30.27,10,3,10,0.00
2013-4-27,57.0,52.4,48.7,48.2,43.2,36.1,88,71,48,30.43,30.31,14,4,15,0.00
2013-4-28,57.0,52.9,49.3,49.5,46.7,41.7,90,80,71,30.34,30.22,7,2,8,0.00
2013-4-29,53.6,52.3,50.7,51.6,50.1,48.7,96,92,86,30.23,30.15,14,4,16,0.24
2013-4-30,56.8,53.0,50.7,51.3,48.7,45.7,94,86,79,30.31,30.16,15,7,17,0.01
2013-5-1,55.2,51.0,48.7,48.9,46.5,44.1,92,85,79,30.46,30.29,18,6,19,0.00
2013-5-2,56.5,52.4,48.7,48.7,46.9,44.8,92,82,73,30.46,30.33,13,4,15,0.00
2013-5-3,53.4,51.1,48.6,48.9,45.6,43.2,90,82,70,30.45,30.35,24,8,25,0.00
2013-5-4,55.9,51.3,47.7,49.5,46.1,42.8,91,83,75,30.35,30.25,17,7,18,0.00
2013-5-5,51.4,48.7,46.9,46.8,43.2,40.8,92,82,74,30.28,30.22,19,8,21,0.00
2013-5-6,54.0,50.5,48.7,49.8,48.2,46.2,96,92,84,30.24,30.14,17,7,20,0.00
2013-5-7,57.0,52.9,50.0,55.9,51.6,48.9,98,96,92,30.14,30.05,16,6,19,0.03
2013-5-8,59.2,56.3,54.5,58.1,54.7,53.1,98,94,88,30.06,29.97,16,5,19,0.31
2013-5-9,68.5,58.6,54.7,60.6,55.6,53.4,97,90,68,30.00,29.91,15,3,15,0.07
2013-5-10,70.0,61.1,57.2,61.9,57.5,55.2,95,88,72,30.01,29.89,12,3,15,0.00
2013-5-11,65.1,60.5,57.2,62.4,58.6,55.6,98,94,84,29.94,29.73,18,5,18,1.20
2013-5-12,67.8,61.2,51.8,62.2,48.3,31.5,98,66,30,29.97,29.68,24,6,24,0.09
2013-5-13,59.7,52.6,46.9,42.1,33.2,25.9,63,48,32,30.10,29.96,18,4,20,0.00
2013-5-14,62.8,52.7,41.2,45.1,35.2,27.0,78,54,28,30.15,30.04,19,4,19,0.00
2013-5-15,63.9,57.1,52.5,58.1,52.3,44.4,91,84,71,30.10,29.71,16,5,21,0.00
2013-5-16,72.3,63.8,56.8,62.4,57.3,52.7,95,80,52,29.84,29.70,10,-2,10,0.00
2013-5-17,69.4,63.7,57.6,62.2,51.8,44.6,84,67,42,30.19,29.82,12,3,14,0.00
2013-5-18,59.9,58.1,56.1,56.5,54.6,52.0,93,88,80,30.31,30.19,14,3,15,0.20
2013-5-19,59.5,57.4,55.6,59.0,56.1,54.1,98,96,93,30.29,30.16,16,5,16,0.30
2013-5-20,64.9,60.9,58.1,62.4,59.5,56.8,99,95,88,30.17,29.99,13,4,15,0.05
2013-5-21,72.0,63.0,59.0,68.0,60.7,57.4,98,92,78,30.00,29.88,16,5,19,0.00
2013-5-22,66.6,62.1,58.3,65.1,60.1,57.0,98,93,84,29.94,29.86,19,6,19,0.00
2013-5-23,65.8,60.9,56.7,64.2,59.5,55.6,99,95,88,29.94,29.78,19,6,22,0.02
2013-5-24,68.4,57.9,45.9,65.5,55.5,43.3,99,92,79,29.98,29.70,20,5,24,0.16
2013-5-25,61.0,53.1,45.0,45.9,41.4,35.4,93,67,44,30.04,29.93,24,7,29,0.01
2013-5-26,70.9,60.0,47.8,46.9,39.3,35.6,74,49,30,30.21,30.02,28,7,28,0.00
2013-5-27,65.3,58.8,51.1,55.2,50.2,45.1,90,74,60,30.26,30.16,17,3,17,0.00
2013-5-28,60.6,57.9,54.9,58.6,55.3,51.6,96,91,83,30.22,30.12,13,3,14,0.20
2013-5-29,65.5,62.1,58.8,62.4,58.4,55.9,94,88,82,30.13,30.05,19,6,22,0.00
2013-5-30,73.9,65.2,59.5,67.5,60.8,57.0,94,86,70,30.16,30.08,19,5,21,0.00
2013-5-31,76.6,66.6,58.8,70.0,62.3,55.9,96,86,70,30.15,30.03,19,5,19,0.00
2013-6-1,70.3,65.9,61.9,66.7,62.3,58.5,94,88,83,30.05,29.96,18,6,19,0.00
2013-6-2,69.3,64.2,59.7,67.6,61.1,58.3,98,90,82,29.96,29.84,19,7,20,0.04
2013-6-3,70.3,62.6,58.8,68.9,61.7,57.6,99,97,89,29.89,29.80,19,4,22,0.71
2013-6-4,70.5,64.1,59.5,67.8,55.0,47.7,97,73,46,30.09,29.86,16,3,16,0.00
2013-6-5,67.5,63.7,60.4,60.4,54.3,42.3,95,73,46,30.19,30.09,13,4,14,0.00
2013-6-6,66.9,62.9,59.2,63.0,60.6,58.1,97,92,87,30.13,29.97,13,4,16,0.03
2013-6-7,68.5,64.2,62.6,68.0,63.4,60.8,99,97,93,29.97,29.51,21,6,28,2.30
2013-6-8,74.1,66.7,60.6,68.4,63.9,59.0,99,91,77,30.05,29.48,21,5,23,0.17
2013-6-9,73.2,68.5,64.2,66.4,63.6,61.9,95,85,69,30.17,30.05,12,3,13,0.00
2013-6-10,66.6,64.9,63.1,65.8,63.9,61.3,98,97,92,30.15,29.82,17,4,17,0.32
2013-6-11,82.6,73.4,64.0,69.8,67.0,63.1,99,82,61,29.82,29.65,21,7,22,0.00
2013-6-12,86.4,72.3,65.7,65.1,62.2,58.3,90,73,40,29.85,29.74,22,5,22,0.00
2013-6-13,71.2,67.0,63.5,68.7,63.6,60.6,96,89,82,29.83,29.39,25,5,25,0.80
2013-6-14,72.0,61.8,55.6,63.9,57.1,53.8,95,85,58,29.90,29.42,26,4,31,0.16
2013-6-15,82.8,71.8,60.6,65.5,59.4,53.2,92,68,37,30.00,29.89,14,4,15,0.00
2013-6-16,81.0,71.2,66.7,70.2,65.9,62.1,91,84,65,30.00,29.82,20,6,20,0.01
2013-6-17,78.1,70.9,66.7,71.1,67.2,63.5,95,88,78,29.93,29.84,17,4,19,0.00
2013-6-18,72.1,66.6,63.5,68.7,64.4,61.3,97,93,82,29.90,29.77,17,3,19,1.48
2013-6-19,70.2,66.2,62.8,64.4,59.5,55.6,94,80,61,30.15,29.82,20,6,21,0.00
2013-6-20,71.6,66.6,60.4,61.7,59.5,55.4,91,78,65,30.28,30.15,10,3,12,0.00
2013-6-21,71.8,67.4,60.6,63.1,60.9,57.2,90,80,69,30.32,30.25,10,3,11,0.00
2013-6-22,73.4,68.7,63.5,66.0,63.3,59.7,93,83,71,30.25,30.14,12,3,13,0.00
2013-6-23,77.9,72.5,67.6,72.0,67.4,60.8,93,84,72,30.20,30.06,15,4,15,0.00
2013-6-24,88.0,75.4,69.1,75.9,70.4,63.1,96,85,59,30.08,29.98,18,5,22,0.00
2013-6-25,90.7,77.9,69.4,74.8,70.6,64.0,90,79,54,30.00,29.83,27,6,28,0.01
2013-6-26,81.9,75.7,71.1,73.8,69.0,64.9,92,80,60,29.87,29.78,17,6,21,0.00
2013-6-27,80.4,72.9,66.7,74.1,69.6,64.6,96,90,74,29.81,29.60,16,4,20,0.02
2013-6-28,76.8,70.7,65.5,73.4,67.6,62.2,97,90,79,29.61,29.49,19,5,19,0.01
2013-6-29,75.0,69.9,63.1,70.5,67.0,61.3,97,90,82,29.70,29.48,14,4,15,0.03
2013-6-30,74.5,68.6,64.8,73.2,66.9,63.3,98,94,89,29.90,29.70,9,3,11,0.00
2013-7-1,73.4,68.6,65.5,72.5,67.3,64.0,98,96,90,30.04,29.88,13,4,15,0.08
2013-7-2,73.9,69.1,64.0,72.5,67.4,62.8,98,94,86,30.20,30.04,16,5,18,0.01
2013-7-3,76.8,69.7,65.3,73.0,67.8,64.2,98,94,85,30.25,30.18,17,5,17,0.00
2013-7-4,73.6,69.7,65.7,72.5,67.5,64.6,99,93,85,30.27,30.19,19,5,19,0.00
2013-7-5,75.6,70.7,64.6,73.0,67.9,63.5,98,91,82,30.22,30.12,17,6,22,0.00
2013-7-6,77.7,72.0,63.9,74.5,68.0,61.9,98,87,76,30.15,30.04,15,4,21,0.00
2013-7-7,79.0,73.1,66.4,75.4,68.9,63.0,96,87,77,30.08,29.95,19,6,20,0.00
2013-7-8,82.0,75.6,66.2,73.2,69.8,62.2,93,83,67,30.06,29.99,15,5,17,0.01
2013-7-9,75.6,71.2,66.6,73.6,68.3,63.1,98,91,81,30.08,29.99,15,4,16,0.43
2013-7-10,79.3,69.4,63.3,74.7,66.9,61.9,98,92,74,30.04,29.84,18,4,19,0.01
2013-7-11,80.1,68.6,63.1,75.6,66.5,61.3,98,93,78,29.90,29.83,14,4,14,0.10
2013-7-12,74.3,69.1,62.6,72.9,67.5,60.8,98,95,90,30.03,29.88,15,5,16,0.12
2013-7-13,79.9,72.3,65.1,75.7,70.6,64.6,99,94,84,30.28,30.02,10,2,13,0.00
2013-7-14,86.2,77.4,72.7,76.1,73.9,71.4,98,89,70,30.32,30.24,14,4,15,0.00
2013-7-15,94.5,82.9,75.0,78.6,74.5,70.7,95,77,47,30.26,30.11,14,5,16,0.00
2013-7-16,89.8,83.7,78.6,76.8,73.0,67.6,85,71,49,30.16,30.11,15,3,16,0.00
2013-7-17,90.1,82.7,78.1,78.3,73.5,69.4,83,74,52,30.16,30.07,11,3,12,0.00
2013-7-18,91.2,82.9,78.3,79.7,76.1,73.2,93,80,64,30.08,29.95,16,5,21,0.16
2013-7-19,83.7,80.4,74.8,78.6,75.7,71.2,93,86,78,29.98,29.83,20,6,20,0.00
2013-7-20,90.3,80.6,72.0,79.7,75.1,68.2,95,84,62,29.88,29.74,23,7,24,0.13
2013-7-21,81.1,75.0,70.7,75.6,71.8,68.2,95,90,76,29.94,29.83,17,3,18,0.65
2013-7-22,80.8,75.9,71.6,76.6,74.2,70.2,97,95,86,29.92,29.78,7,2,8,0.00
2013-7-23,84.4,77.8,73.8,76.6,74.4,70.7,97,90,73,29.78,29.57,20,5,24,0.36
2013-7-24,87.4,78.9,73.8,74.8,70.6,64.2,88,76,56,29.86,29.62,12,3,13,0.00
2013-7-25,74.7,68.1,65.7,64.2,62.4,60.8,90,82,68,30.00,29.86,23,10,25,0.03
2013-7-26,79.2,71.5,65.3,68.4,65.3,61.5,90,81,63,30.06,29.94,15,4,18,0.00
2013-7-27,77.7,73.6,69.6,71.1,68.2,65.1,89,83,74,30.06,29.94,11,4,12,0.00
2013-7-28,77.2,74.1,70.7,72.9,70.6,67.3,94,89,83,29.99,29.91,16,4,16,0.00
2013-7-29,82.8,74.5,67.8,73.2,68.1,60.6,96,82,50,30.10,29.93,13,3,18,0.09
2013-7-30,81.1,73.8,65.5,68.0,61.6,58.3,82,67,49,30.16,30.09,13,3,13,0.00
2013-7-31,80.1,75.4,67.6,67.6,63.9,60.4,80,68,55,30.14,30.03,10,3,11,0.00
2013-8-1,75.9,72.7,69.1,70.7,68.1,63.3,94,86,72,30.03,29.81,17,4,20,0.38
2013-8-2,84.4,75.6,69.3,72.7,69.5,63.3,96,82,51,29.93,29.79,17,4,20,0.00
2013-8-3,78.3,74.5,68.0,70.9,68.3,64.4,91,81,70,29.92,29.87,16,5,19,0.01
2013-8-4,82.9,73.2,63.9,66.9,61.6,56.1,95,70,42,29.96,29.83,14,2,18,0.00
2013-8-5,76.6,69.9,61.9,66.0,58.1,53.1,85,67,49,30.04,29.96,11,2,13,0.00
2013-8-6,78.1,71.7,64.8,67.1,64.3,57.9,88,78,66,30.11,30.02,9,2,11,0.00
2013-8-7,75.7,72.1,70.3,70.0,68.0,65.1,94,87,78,30.12,30.05,14,4,15,0.30
2013-8-8,78.6,74.2,71.6,73.2,71.2,69.6,95,90,82,30.06,30.01,16,6,20,0.28
2013-8-9,79.5,74.6,71.4,75.9,72.6,69.3,97,93,85,30.02,29.81,20,6,20,0.11
2013-8-10,84.7,78.1,72.9,75.4,69.9,63.1,96,77,49,30.03,29.86,13,3,15,0.00
2013-8-11,77.9,73.5,69.6,70.9,66.0,56.8,94,78,58,30.11,30.02,13,3,14,0.00
2013-8-12,80.8,74.8,71.1,74.7,71.8,68.9,95,91,79,30.03,29.91,8,2,9,0.00
2013-8-13,82.4,74.1,70.5,74.3,71.8,69.1,97,93,70,29.92,29.64,22,3,29,2.49
2013-8-14,76.8,70.0,63.5,71.1,57.1,49.5,93,65,47,30.03,29.72,18,3,20,0.01
2013-8-15,73.0,67.5,59.7,59.9,56.0,52.5,78,67,56,30.14,30.03,12,3,14,0.00
2013-8-16,78.8,70.9,62.6,62.8,58.7,52.3,81,66,41,30.18,30.12,9,2,9,0.00
2013-8-17,75.6,70.4,63.3,64.4,61.4,57.4,86,74,62,30.26,30.18,10,2,11,0.00
2013-8-18,75.2,72.0,68.2,66.6,62.6,45.0,80,72,38,30.23,30.10,18,6,19,0.00
2013-8-19,77.9,71.8,65.7,68.5,63.2,57.2,89,75,59,30.13,30.04,13,4,14,0.00
2013-8-20,79.5,73.1,66.6,72.3,69.0,64.9,95,87,71,30.13,30.05,16,4,16,0.00
2013-8-21,80.2,75.1,70.2,74.7,71.3,68.0,93,88,82,30.17,30.07,14,4,15,0.00
2013-8-22,81.3,75.7,72.3,74.5,71.1,68.4,94,86,74,30.07,29.88,16,5,17,0.02
2013-8-23,79.7,74.5,70.2,71.6,66.7,62.4,91,77,57,30.06,29.86,16,3,17,0.00
2013-8-24,73.4,70.7,66.9,67.6,63.4,61.0,91,78,68,30.32,30.06,19,5,19,0.02
2013-8-25,77.0,71.0,62.1,64.6,60.8,53.8,92,71,45,30.39,30.25,15,3,15,0.00
2013-8-26,81.9,72.7,67.8,70.2,65.6,61.2,87,79,60,30.25,29.94,22,8,22,0.00
2013-8-27,87.1,77.1,72.3,73.0,70.1,68.2,88,80,56,29.94,29.83,15,4,16,0.00
2013-8-28,77.0,74.2,71.8,74.1,71.5,68.9,95,91,85,29.89,29.81,7,1,8,0.06
2013-8-29,75.7,72.8,70.3,72.5,69.0,66.2,97,88,75,30.01,29.83,18,6,21,0.01
2013-8-30,78.3,73.2,69.4,71.2,68.3,65.8,91,85,74,30.01,29.88,14,4,18,0.00
2013-8-31,79.0,75.2,71.8,73.4,71.3,68.5,93,88,79,29.90,29.81,19,7,21,0.00
2013-9-1,79.2,73.3,68.9,74.7,71.0,67.5,96,93,84,29.86,29.78,12,4,15,0.00
2013-9-2,76.6,72.9,70.3,75.0,71.6,68.9,98,96,92,29.80,29.71,13,2,13,0.29
2013-9-3,83.8,76.2,69.6,76.6,71.0,60.4,97,85,60,29.88,29.70,11,3,13,0.01
2013-9-4,81.9,72.1,63.3,66.9,60.6,54.9,86,69,41,30.01,29.87,15,4,18,0.00
2013-9-5,81.9,72.9,65.7,65.7,60.8,48.7,86,67,46,30.10,29.95,15,5,16,0.00
2013-9-6,69.8,65.5,57.2,55.6,51.5,48.6,75,61,53,30.22,30.10,15,4,17,0.00
2013-9-7,72.7,66.8,57.9,63.7,56.4,45.5,88,70,40,30.12,29.91,14,3,16,0.00
2013-9-8,86.7,75.1,67.8,67.6,63.5,51.1,88,69,51,30.04,29.80,17,5,20,0.00
2013-9-9,72.3,69.2,67.1,63.9,58.4,51.3,81,69,52,30.21,30.04,16,6,20,0.00
2013-9-10,78.1,74.0,70.0,72.3,69.2,63.9,90,85,78,30.19,30.07,18,6,19,0.00
2013-9-11,79.3,75.0,71.2,73.8,71.2,69.1,94,88,81,30.13,30.00,16,5,16,0.00
2013-9-12,75.9,73.4,69.8,72.9,70.4,68.0,96,90,84,30.00,29.70,20,6,20,0.04
2013-9-13,78.8,71.8,62.1,70.2,63.0,53.2,94,75,50,29.84,29.64,13,3,15,0.03
2013-9-14,70.7,61.3,54.5,53.2,50.2,47.1,85,68,48,30.13,29.84,13,3,16,0.00
2013-9-15,70.5,61.8,51.3,61.0,51.7,46.2,85,70,49,30.22,30.09,17,4,18,0.00
2013-9-16,70.0,65.9,61.0,64.0,59.8,54.1,89,81,69,30.18,30.03,14,3,16,0.03
2013-9-17,61.3,58.4,54.3,54.5,46.7,43.2,83,65,53,30.39,30.18,25,8,25,0.00
2013-9-18,66.4,59.0,50.5,53.6,49.5,45.7,84,71,55,30.33,30.19,8,2,9,0.00
2013-9-19,69.4,63.1,54.7,58.8,55.5,50.9,89,77,61,30.19,30.08,11,3,13,0.00
2013-9-20,71.1,64.9,57.4,63.5,59.7,54.9,92,84,75,30.09,29.99,12,4,12,0.00
2013-9-21,73.2,68.8,61.2,68.7,65.5,58.1,96,89,79,30.01,29.68,13,4,15,0.13
2013-9-22,73.8,66.4,55.9,68.4,56.8,47.5,96,74,46,29.89,29.63,17,3,17,0.26
2013-9-23,69.1,58.8,50.2,49.5,45.6,43.3,78,63,43,30.02,29.88,13,2,14,0.00
2013-9-24,72.3,59.6,48.0,55.0,48.4,44.1,87,68,42,30.04,29.88,13,3,15,0.00
2013-9-25,68.5,62.1,55.0,58.3,53.8,48.6,85,75,65,29.94,29.86,11,2,11,0.00
2013-9-26,69.6,62.6,56.8,61.3,57.2,54.0,92,83,69,30.07,29.91,12,3,13,0.00
2013-9-27,67.6,64.2,62.2,59.0,55.5,52.7,82,74,66,30.23,30.06,15,6,16,0.00
2013-9-28,68.5,65.3,62.4,59.4,56.7,53.1,81,74,65,30.29,30.19,15,7,17,0.00
2013-9-29,67.3,64.6,61.9,59.2,55.0,49.8,80,71,60,30.19,30.04,16,6,17,0.00
2013-9-30,67.8,62.9,55.9,59.9,57.1,51.6,93,82,69,30.05,29.98,14,4,14,0.00
2013-10-1,81.3,67.1,57.6,66.7,60.2,54.3,92,80,52,30.01,29.90,12,3,12,0.00
2013-10-2,82.9,72.4,62.1,65.8,62.5,59.2,92,73,49,30.01,29.91,16,4,17,0.00
2013-10-3,74.1,69.0,65.5,65.5,63.1,60.6,93,82,69,30.10,30.00,8,2,9,0.00
2013-10-4,73.9,70.3,66.7,68.7,66.8,64.6,94,89,82,30.06,29.97,13,3,14,0.00
2013-10-5,70.5,67.7,65.5,67.8,65.7,63.9,97,93,90,30.07,30.00,11,3,11,0.02
2013-10-6,73.2,68.3,66.0,71.8,67.2,65.1,98,96,91,30.07,29.99,11,3,12,0.00
2013-10-7,73.2,68.7,61.9,69.8,66.1,55.9,96,92,80,30.01,29.82,26,6,26,0.04
2013-10-8,65.5,60.8,54.0,56.1,50.2,46.9,82,69,54,30.26,29.99,18,6,18,0.00
2013-10-9,64.2,62.1,61.0,56.3,53.7,47.1,83,74,54,30.31,30.19,26,13,29,0.00
2013-10-10,64.0,62.4,60.4,62.6,60.4,55.8,96,93,82,30.21,29.96,30,14,31,0.34
2013-10-11,63.9,63.6,62.8,63.0,62.3,61.3,97,95,92,30.00,29.91,30,14,30,0.28
2013-10-12,66.7,63.5,62.1,61.5,60.4,59.0,96,90,81,30.18,29.98,31,13,31,0.55
2013-10-13,63.9,61.8,60.1,60.3,56.2,54.1,90,82,75,30.33,30.17,27,12,28,0.00
2013-10-14,63.7,60.3,58.3,56.3,54.4,51.8,86,81,72,30.32,30.23,21,6,21,0.00
2013-10-15,65.5,60.5,53.1,60.1,55.0,50.9,94,83,69,30.23,30.06,14,5,15,0.00
2013-10-16,64.2,62.5,60.1,61.9,60.3,58.3,95,92,88,30.07,29.92,12,3,14,0.00
2013-10-17,67.5,64.1,61.5,64.0,62.0,60.1,96,93,87,29.92,29.72,17,4,17,0.02
2013-10-18,67.5,61.2,55.2,64.2,50.8,45.5,95,70,49,29.99,29.71,23,6,23,0.03
2013-10-19,63.0,58.2,51.1,60.3,51.3,44.6,94,78,64,29.99,29.77,14,2,16,0.02
2013-10-20,63.1,56.0,47.8,59.4,43.7,37.0,94,65,40,30.07,29.77,18,5,19,0.00
2013-10-21,63.7,56.6,48.0,51.1,46.7,41.4,84,70,49,30.15,29.98,14,3,15,0.00
2013-10-22,70.5,60.5,53.1,57.0,51.0,42.6,89,72,47,29.98,29.75,16,4,16,0.00
2013-10-23,53.2,49.7,44.4,50.2,44.1,36.9,95,82,57,29.80,29.58,12,2,14,0.41
2013-10-24,52.5,45.3,38.7,39.4,35.6,29.8,90,70,45,30.05,29.78,22,7,23,0.00
2013-10-25,54.9,44.7,36.1,37.6,34.4,31.5,84,68,46,30.25,30.04,17,6,19,0.00
2013-10-26,56.3,47.9,37.9,43.2,37.7,32.9,84,69,45,30.25,29.92,20,6,27,0.00
2013-10-27,58.6,51.7,45.5,43.2,37.8,34.2,74,60,41,30.14,29.88,18,5,20,0.00
2013-10-28,60.1,51.0,40.8,51.3,41.5,31.8,88,71,42,30.27,30.12,10,2,12,0.00
2013-10-29,59.2,55.0,48.4,49.8,47.1,41.7,87,75,64,30.36,30.27,19,6,19,0.00
2013-10-30,59.5,56.2,52.9,56.3,52.3,47.8,93,87,77,30.33,30.18,10,2,11,0.03
2013-10-31,64.0,60.5,53.1,62.1,58.5,51.1,96,93,89,30.22,29.85,16,4,17,0.00
2013-11-1,66.2,62.3,60.1,63.5,60.6,58.5,97,94,90,29.85,29.59,25,7,32,0.12
2013-11-2,64.0,59.7,55.0,61.2,55.9,44.8,98,88,65,29.78,29.59,10,2,10,0.01
2013-11-3,55.8,48.5,36.7,47.5,38.5,25.0,86,69,49,30.41,29.78,18,3,20,0.00
2013-11-4,50.5,42.6,34.0,41.2,32.1,24.1,70,66,60,30.61,30.41,19,6,20,0.00
2013-11-5,55.9,53.4,50.5,46.9,44.6,39.6,76,72,65,30.61,30.46,14,5,15,0.00
2013-11-6,60.6,56.0,45.9,58.1,50.9,41.2,94,83,73,30.48,30.08,12,3,13,0.00
2013-11-7,61.0,55.7,43.5,60.4,53.7,38.8,98,93,83,30.08,29.76,23,5,26,0.27
2013-11-8,49.6,43.6,37.6,39.9,33.4,29.8,85,68,48,30.25,29.96,23,6,25,0.01
2013-11-9,51.1,44.5,36.0,42.8,33.3,28.0,78,66,46,30.31,30.02,15,5,17,0.00
2013-11-10,61.7,51.7,45.9,41.9,37.0,30.7,78,59,36,30.10,29.83,28,8,30,0.00
2013-11-11,55.6,48.1,40.6,42.4,35.3,29.7,73,61,44,30.23,30.00,19,6,21,0.00
2013-11-12,50.4,40.2,31.5,43.2,29.8,18.5,85,67,49,30.30,29.94,16,4,22,0.01
2013-11-13,40.6,33.8,27.1,24.6,18.5,12.9,69,54,32,30.38,30.29,16,4,16,0.00
2013-11-14,54.1,43.1,33.4,36.7,27.6,18.3,77,57,26,30.32,30.20,20,8,23,0.00
2013-11-15,53.1,46.9,40.6,43.5,38.5,35.6,85,73,54,30.27,30.18,12,4,15,0.00
2013-11-16,50.5,47.6,43.0,48.6,44.0,36.0,94,87,75,30.34,30.23,9,1,9,0.03
2013-11-17,59.4,53.9,48.2,58.5,52.9,46.6,98,96,93,30.24,29.80,9,2,11,0.00
2013-11-18,65.1,57.4,50.0,59.4,45.4,31.6,98,68,37,29.80,29.65,24,6,30,0.09
2013-11-19,50.4,45.0,35.8,32.4,28.5,25.5,66,53,44,30.33,29.80,18,4,20,0.00
2013-11-20,45.7,39.5,33.1,36.1,28.2,23.9,70,64,54,30.56,30.33,18,5,20,0.00
2013-11-21,53.8,49.5,45.7,46.9,42.4,34.2,87,77,64,30.56,30.38,14,4,15,0.00
2013-11-22,56.7,52.3,48.0,52.3,49.2,43.7,95,89,82,30.38,29.92,16,3,16,0.01
2013-11-23,52.9,44.7,33.6,51.8,32.1,20.8,96,63,40,30.04,29.92,25,6,25,0.00
2013-11-24,33.4,27.3,22.8,24.4,7.5,3.0,72,43,31,30.43,30.02,29,8,32,0.00
2013-11-25,35.6,28.9,20.3,23.7,16.1,7.5,73,59,45,30.53,30.36,15,6,17,0.00
2013-11-26,54.7,42.3,33.8,53.6,34.0,22.1,96,73,48,30.37,29.68,20,6,23,0.38
2013-11-27,57.9,46.6,34.5,57.2,44.6,25.7,98,93,67,29.81,29.32,27,9,30,0.69
2013-11-28,37.9,32.9,29.5,26.1,20.4,16.7,71,60,43,30.48,29.81,23,6,27,0.00
2013-11-29,42.6,34.6,28.8,24.8,22.6,20.1,79,62,41,30.70,30.47,9,1,10,0.00
2013-11-30,46.4,37.2,27.1,42.8,29.5,19.4,87,74,63,30.70,30.33,14,4,16,0.00
2013-12-1,48.6,41.6,34.0,39.7,36.4,31.1,90,82,61,30.33,30.01,10,2,13,0.00
2013-12-2,48.0,40.8,34.2,39.7,35.3,30.9,92,81,63,30.01,29.86,7,1,8,0.00
2013-12-3,49.5,43.4,38.8,45.7,40.7,36.5,95,90,78,30.01,29.85,9,2,9,0.00
2013-12-4,53.2,46.5,38.8,48.6,43.8,36.0,95,91,84,30.11,30.00,5,1,8,0.00
2013-12-5,54.0,50.6,48.6,53.1,49.6,47.5,98,97,95,30.10,29.95,11,2,13,0.01
2013-12-6,55.2,48.5,40.6,54.7,47.7,39.6,98,97,96,30.11,29.90,17,5,20,0.29
2013-12-7,43.2,37.8,32.5,39.6,32.7,24.3,96,83,66,30.49,30.05,19,4,19,0.21
2013-12-8,42.6,33.7,28.6,41.4,29.0,20.3,95,83,68,30.57,30.26,20,6,22,0.36
2013-12-9,48.2,41.8,34.9,47.3,40.8,33.8,98,96,95,30.27,29.96,21,6,22,0.82
2013-12-10,34.9,33.0,30.7,33.8,31.5,27.0,96,94,85,30.17,29.86,15,4,15,0.11
2013-12-11,35.8,31.1,24.8,27.0,24.1,21.2,87,75,61,30.38,30.17,17,4,19,0.02
2013-12-12,28.9,25.9,24.1,22.6,16.8,11.8,80,69,53,30.36,30.20,15,4,18,0.00
2013-12-13,38.1,31.4,26.1,26.1,20.4,15.6,79,64,46,30.33,30.17,16,5,19,0.00
2013-12-14,49.6,40.0,30.6,48.6,34.5,25.0,96,81,62,30.41,29.65,20,7,20,0.49
2013-12-15,54.0,40.1,32.9,53.4,35.6,24.8,98,85,66,29.90,29.48,25,8,28,0.38
2013-12-16,33.6,30.2,25.5,26.6,15.9,9.7,77,56,39,30.24,29.88,20,5,20,0.00
2013-12-17,45.7,36.1,27.7,43.2,30.6,13.8,94,81,53,30.22,29.90,12,3,13,0.08
2013-12-18,39.0,31.8,25.5,28.4,24.3,20.5,93,75,48,30.21,29.88,20,5,21,0.00
2013-12-19,49.8,41.2,30.2,39.6,33.1,24.3,84,73,53,30.22,30.05,16,5,18,0.00
2013-12-20,50.4,46.2,43.3,47.8,40.8,34.3,94,82,62,30.11,30.01,19,5,19,0.00
2013-12-21,53.2,49.2,45.1,51.3,47.0,43.2,96,92,85,30.03,29.93,22,6,23,0.00
2013-12-22,58.8,52.4,48.6,57.9,51.4,47.5,99,96,87,29.99,29.89,20,8,23,0.00
2013-12-23,56.5,50.6,42.4,55.9,49.4,39.7,98,96,90,30.12,29.89,17,4,19,0.38
2013-12-24,42.6,37.1,29.5,39.7,27.1,18.0,91,68,48,30.35,30.09,17,4,22,0.01
2013-12-25,34.5,27.4,21.2,26.8,16.0,9.9,74,62,47,30.53,30.35,13,3,16,0.00
2013-12-26,42.4,33.8,27.7,29.1,25.8,21.9,84,73,52,30.41,30.18,16,2,18,0.00
2013-12-27,46.0,36.0,28.6,31.6,25.7,19.8,83,68,36,30.40,30.27,14,3,17,0.00
2013-12-28,51.4,41.2,34.3,40.5,34.2,27.1,86,76,52,30.31,30.10,17,5,18,0.00
2013-12-29,55.2,45.5,41.5,54.3,42.0,35.2,98,88,71,30.10,29.41,31,7,32,0.95
2013-12-30,47.3,40.3,29.8,41.9,33.4,18.1,94,77,57,30.17,29.72,16,5,21,0.00
2013-12-31,40.3,31.5,25.9,28.9,20.6,15.1,72,64,53,30.31,30.07,17,4,21,0.00
2014-1-1,41.0,33.8,25.0,36.0,23.9,14.7,89,67,52,30.41,30.18,13,3,14,0.00
2014-1-2,44.2,37.0,30.7,41.7,35.2,29.7,96,93,89,30.18,29.52,27,9,27,0.19